createdAt,value
2018-12-09T00:01:25.143Z,1.70
2018-12-09T00:05:28.831Z,1.90
2018-12-09T00:09:32.510Z,1.70
2018-12-09T00:13:36.276Z,1.35
2018-12-09T00:17:40.410Z,1.00
2018-12-09T00:21:44.015Z,0.90
2018-12-09T00:25:47.731Z,0.72
2018-12-09T00:29:51.386Z,0.90
2018-12-09T00:33:55.087Z,0.78
2018-12-09T00:37:58.770Z,0.90
2018-12-09T00:42:02.381Z,0.90
2018-12-09T00:46:06.114Z,0.90
2018-12-09T00:50:09.885Z,0.90
2018-12-09T00:54:13.521Z,1.20
2018-12-09T00:58:17.166Z,0.82
2018-12-09T01:02:20.814Z,1.27
2018-12-09T01:06:24.454Z,1.30
2018-12-09T01:10:28.106Z,1.17
2018-12-09T01:14:31.786Z,1.17
2018-12-09T01:18:35.461Z,1.20
2018-12-09T01:22:39.158Z,1.50
2018-12-09T01:26:42.942Z,1.90
2018-12-09T01:30:46.593Z,1.98
2018-12-09T01:34:50.250Z,1.80
2018-12-09T01:38:53.962Z,1.82
2018-12-09T01:42:57.602Z,2.22
2018-12-09T01:47:01.527Z,2.00
2018-12-09T01:51:05.266Z,1.70
2018-12-09T01:55:09.028Z,2.12
2018-12-09T01:59:13.245Z,1.92
2018-12-09T02:03:16.876Z,2.33
2018-12-09T02:07:20.626Z,2.25
2018-12-09T02:11:24.352Z,2.20
2018-12-09T02:15:28.177Z,1.80
2018-12-09T02:19:31.961Z,0.82
2018-12-09T02:23:35.720Z,1.27
2018-12-09T02:27:39.429Z,1.10
2018-12-09T02:31:43.235Z,1.22
2018-12-09T02:35:47.402Z,1.27
2018-12-09T02:39:51.055Z,1.55
2018-12-09T02:43:54.794Z,0.97
2018-12-09T02:47:58.536Z,1.10
2018-12-09T02:52:02.349Z,1.30
2018-12-09T02:56:06.062Z,1.20
2018-12-09T03:00:10.231Z,0.90
2018-12-09T03:04:13.909Z,1.10
2018-12-09T03:08:17.586Z,1.40
2018-12-09T03:12:21.267Z,1.30
2018-12-09T03:16:25.055Z,1.65
2018-12-09T03:20:29.218Z,1.20
2018-12-09T03:24:32.975Z,1.53
2018-12-09T03:28:36.758Z,1.82
2018-12-09T03:32:40.451Z,1.92
2018-12-09T03:36:44.232Z,1.95
2018-12-09T03:40:48.050Z,1.92
2018-12-09T03:44:51.839Z,1.77
2018-12-09T03:48:55.616Z,1.75
2018-12-09T03:52:59.334Z,1.77
2018-12-09T03:57:03.034Z,1.67
2018-12-09T04:01:06.702Z,2.10
2018-12-09T04:05:10.809Z,2.33
2018-12-09T04:09:14.507Z,2.33
2018-12-09T04:13:18.221Z,2.70
2018-12-09T04:17:21.985Z,3.07
2018-12-09T04:21:25.671Z,3.05
2018-12-09T04:25:29.347Z,3.30
2018-12-09T04:29:33.063Z,2.77
2018-12-09T04:33:36.672Z,3.40
2018-12-09T04:37:40.744Z,3.17
2018-12-09T04:41:44.400Z,3.33
2018-12-09T04:45:48.068Z,3.63
2018-12-09T04:49:51.711Z,3.52
2018-12-09T04:53:55.405Z,3.85
2018-12-09T04:57:59.140Z,3.03
2018-12-09T05:02:02.782Z,2.95
2018-12-09T05:06:06.541Z,3.30
2018-12-09T05:10:10.205Z,3.10
2018-12-09T05:14:13.866Z,3.17
2018-12-09T05:18:17.513Z,3.00
2018-12-09T05:22:21.661Z,3.08
2018-12-09T05:26:25.308Z,2.67
2018-12-09T05:30:28.973Z,2.30
2018-12-09T05:34:32.621Z,2.17
2018-12-09T05:38:36.259Z,2.00
2018-12-09T05:42:40.002Z,1.70
2018-12-09T05:46:43.667Z,1.47
2018-12-09T05:50:47.351Z,0.80
2018-12-09T05:54:51.410Z,1.03
2018-12-09T05:58:55.227Z,0.62
2018-12-09T06:02:59.113Z,0.50
2018-12-09T06:07:02.933Z,0.50
2018-12-09T06:11:06.785Z,0.60
2018-12-09T06:15:10.591Z,0.40
2018-12-09T06:19:14.373Z,0.37
2018-12-09T06:23:18.186Z,0.20
2018-12-09T06:27:22.554Z,0.40
2018-12-09T06:31:26.325Z,0.30
2018-12-09T06:35:30.127Z,0.30
2018-12-09T06:39:33.859Z,0.30
2018-12-09T06:43:37.571Z,0.20
2018-12-09T06:47:41.266Z,0.30
2018-12-09T06:51:44.889Z,0.10
2018-12-09T06:55:48.539Z,0.40
2018-12-09T06:59:52.253Z,0.23
2018-12-09T07:03:55.959Z,0.30
2018-12-09T07:07:59.855Z,0.20
2018-12-09T07:12:03.601Z,0.40
2018-12-09T07:16:07.338Z,0.20
2018-12-09T07:20:12.387Z,0.30
2018-12-09T07:24:16.066Z,0.30
2018-12-09T07:28:19.746Z,0.30
2018-12-09T07:32:23.438Z,0.30
2018-12-09T07:36:27.067Z,0.20
2018-12-09T07:40:30.770Z,0.20
2018-12-09T07:44:34.454Z,0.30
2018-12-09T07:48:38.150Z,0.40
2018-12-09T07:52:41.826Z,0.23
2018-12-09T07:56:45.468Z,0.20
2018-12-09T08:00:49.114Z,0.30
2018-12-09T08:04:52.783Z,0.37
2018-12-09T08:08:56.998Z,0.30
2018-12-09T08:13:00.886Z,0.30
2018-12-09T08:17:04.542Z,0.25
2018-12-09T08:21:09.102Z,0.30
2018-12-09T08:25:13.073Z,0.30
2018-12-09T08:29:17.340Z,0.20
2018-12-09T08:33:21.124Z,1.40
2018-12-09T08:37:24.787Z,0.20
2018-12-09T08:41:28.461Z,0.20
2018-12-09T08:45:32.130Z,0.20
2018-12-09T08:49:35.779Z,0.20
2018-12-09T08:53:39.421Z,0.30
2018-12-09T08:57:43.182Z,0.20
2018-12-09T09:01:47.006Z,0.30
2018-12-09T09:05:50.626Z,0.20
2018-12-09T09:09:54.319Z,0.30
2018-12-09T09:13:58.527Z,0.30
2018-12-09T09:18:02.172Z,0.40
2018-12-09T09:22:05.975Z,0.35
2018-12-09T09:26:09.664Z,0.40
2018-12-09T09:30:13.317Z,0.30
2018-12-09T09:34:16.999Z,0.30
2018-12-09T09:38:20.659Z,0.47
2018-12-09T09:42:24.298Z,0.40
2018-12-09T09:46:27.954Z,0.40
2018-12-09T09:50:31.554Z,0.50
2018-12-09T09:54:35.366Z,0.43
2018-12-09T09:58:39.038Z,0.60
2018-12-09T10:02:42.820Z,0.50
2018-12-09T10:06:46.490Z,0.70
2018-12-09T10:10:50.361Z,0.73
2018-12-09T10:14:54.064Z,0.90
2018-12-09T10:18:58.079Z,1.40
2018-12-09T10:23:01.776Z,1.00
2018-12-09T10:27:05.447Z,1.22
2018-12-09T10:31:09.076Z,1.23
2018-12-09T10:35:12.774Z,1.60
2018-12-09T10:39:16.437Z,1.35
2018-12-09T10:43:20.097Z,1.10
2018-12-09T10:47:23.742Z,1.62
2018-12-09T10:51:27.376Z,1.50
2018-12-09T10:55:31.043Z,1.20
2018-12-09T10:59:34.727Z,1.20
2018-12-09T11:03:38.618Z,1.20
2018-12-09T11:07:42.317Z,1.22
2018-12-09T11:11:46.024Z,1.60
2018-12-09T11:15:49.718Z,1.85
2018-12-09T11:19:53.409Z,2.80
2018-12-09T11:23:57.092Z,2.23
2018-12-09T11:28:00.770Z,1.80
2018-12-09T11:32:04.458Z,2.37
2018-12-09T11:36:08.115Z,1.70
2018-12-09T11:40:11.766Z,1.95
2018-12-09T11:44:15.420Z,2.13
2018-12-09T11:48:19.107Z,2.05
2018-12-09T11:52:23.575Z,2.05
2018-12-09T11:56:27.343Z,1.72
2018-12-09T12:00:31.026Z,1.65
2018-12-09T12:04:34.694Z,2.10
2018-12-09T12:08:38.379Z,2.05
2018-12-09T12:12:42.046Z,2.20
2018-12-09T12:16:45.754Z,1.87
2018-12-09T12:20:49.441Z,1.92
2018-12-09T12:24:53.114Z,1.70
2018-12-09T12:28:57.069Z,1.73
2018-12-09T12:33:00.887Z,1.92
2018-12-09T12:37:06.988Z,1.65
2018-12-09T12:41:10.862Z,2.05
2018-12-09T12:45:14.699Z,1.60
2018-12-09T12:49:18.446Z,1.95
2018-12-09T12:53:22.402Z,1.52
2018-12-09T12:57:26.127Z,1.50
2018-12-09T13:01:30.113Z,1.80
2018-12-09T13:05:33.963Z,1.92
2018-12-09T13:09:38.050Z,1.72
2018-12-09T13:13:42.340Z,1.27
2018-12-09T13:17:46.931Z,1.50
2018-12-09T13:21:50.625Z,1.90
2018-12-09T13:25:54.450Z,2.08
2018-12-09T13:29:58.899Z,1.80
2018-12-09T13:34:02.563Z,1.82
2018-12-09T13:38:06.466Z,1.83
2018-12-09T13:42:10.160Z,1.62
2018-12-09T13:46:13.950Z,1.25
2018-12-09T13:50:17.767Z,1.52
2018-12-09T13:54:21.438Z,1.33
2018-12-09T13:58:26.232Z,1.02
2018-12-09T14:02:29.930Z,0.98
2018-12-09T14:06:33.614Z,0.70
2018-12-09T14:10:37.286Z,1.00
2018-12-09T14:14:40.971Z,1.02
2018-12-09T14:18:44.791Z,1.20
2018-12-09T14:22:48.454Z,1.07
2018-12-09T14:26:52.120Z,0.93
2018-12-09T14:30:55.824Z,0.98
2018-12-09T14:34:59.490Z,0.80
2018-12-09T14:39:04.982Z,0.70
2018-12-09T14:43:08.659Z,0.80
2018-12-09T14:47:12.456Z,1.12
2018-12-09T14:51:16.129Z,0.93
2018-12-09T14:55:19.847Z,0.90
2018-12-09T14:59:23.583Z,1.00
2018-12-09T15:03:27.244Z,1.10
2018-12-09T15:07:30.943Z,0.90
2018-12-09T15:11:34.667Z,1.20
2018-12-09T15:15:38.343Z,0.80
2018-12-09T15:19:42.015Z,1.12
2018-12-09T15:23:45.706Z,1.25
2018-12-09T15:27:49.681Z,1.67
2018-12-09T15:31:53.431Z,1.25
2018-12-09T15:35:57.186Z,1.40
2018-12-09T15:40:00.935Z,1.67
2018-12-09T15:44:04.681Z,1.32
2018-12-09T15:48:08.391Z,1.30
2018-12-09T15:52:12.141Z,1.37
2018-12-09T15:56:15.922Z,1.40
2018-12-09T16:00:19.711Z,1.60
2018-12-09T16:04:23.355Z,1.87
2018-12-09T16:08:27.062Z,1.47
2018-12-09T16:12:30.789Z,1.97
2018-12-09T16:16:34.746Z,1.62
2018-12-09T16:20:38.434Z,1.70
2018-12-09T16:24:42.042Z,2.22
2018-12-09T16:28:45.685Z,2.00
2018-12-09T16:32:49.422Z,1.72
2018-12-09T16:36:53.078Z,2.02
2018-12-09T16:40:56.706Z,1.97
2018-12-09T16:45:00.401Z,2.60
2018-12-09T16:49:04.119Z,2.30
2018-12-09T16:53:07.934Z,2.55
2018-12-09T16:57:11.623Z,2.70
2018-12-09T17:01:15.238Z,2.17
2018-12-09T17:05:18.885Z,2.00
2018-12-09T17:09:22.533Z,2.73
2018-12-09T17:13:26.191Z,2.37
2018-12-09T17:17:30.021Z,2.20
2018-12-09T17:21:33.769Z,2.70
2018-12-09T17:25:37.681Z,2.20
2018-12-09T17:30:12.827Z,2.83
2018-12-09T17:34:16.490Z,3.00
2018-12-09T17:38:20.102Z,3.12
2018-12-09T17:42:23.747Z,3.02
2018-12-09T17:46:27.395Z,3.40
2018-12-09T17:50:31.032Z,3.15
2018-12-09T17:54:34.647Z,2.30
2018-12-09T17:58:38.300Z,2.33
2018-12-09T18:02:41.938Z,2.30
2018-12-09T18:06:45.589Z,2.30
2018-12-09T18:10:49.238Z,2.22
2018-12-09T18:14:52.890Z,2.20
2018-12-09T18:18:56.538Z,2.52
2018-12-09T18:23:00.183Z,3.30
2018-12-09T18:27:03.856Z,3.30
2018-12-09T18:31:07.513Z,3.55
2018-12-09T18:35:11.697Z,3.20
2018-12-09T18:39:15.377Z,3.02
2018-12-09T18:43:19.138Z,3.65
2018-12-09T18:47:22.817Z,3.57
2018-12-09T18:51:26.445Z,3.52
2018-12-09T18:55:30.110Z,3.20
2018-12-09T18:59:35.006Z,3.53
2018-12-09T19:03:38.858Z,3.17
2018-12-09T19:07:42.815Z,3.87
2018-12-09T19:11:46.647Z,2.93
2018-12-09T19:15:56.755Z,3.30
2018-12-09T19:20:01.401Z,3.43
2018-12-09T19:24:05.805Z,2.80
2018-12-09T19:28:10.966Z,2.33
2018-12-09T19:32:14.995Z,2.60
2018-12-09T19:36:20.760Z,2.15
2018-12-09T19:40:24.969Z,2.87
2018-12-09T19:44:29.684Z,1.85
2018-12-09T19:48:33.334Z,1.95
2018-12-09T19:52:37.503Z,2.50
2018-12-09T19:56:42.808Z,2.58
2018-12-09T20:00:46.935Z,3.22
2018-12-09T20:04:50.839Z,2.83
2018-12-09T20:08:56.224Z,3.33
2018-12-09T20:13:01.501Z,3.00
2018-12-09T20:17:05.589Z,3.05
2018-12-09T20:21:09.542Z,3.02
2018-12-09T20:25:13.782Z,3.45
2018-12-09T20:29:19.120Z,2.83
2018-12-09T20:33:26.000Z,2.22
2018-12-09T20:37:32.052Z,2.37
2018-12-09T20:41:36.337Z,2.12
2018-12-09T20:45:40.356Z,2.72
2018-12-09T20:49:44.272Z,2.30
2018-12-09T20:53:48.255Z,2.30
2018-12-09T20:57:52.287Z,2.40
2018-12-09T21:02:01.241Z,2.17
2018-12-09T21:06:05.896Z,2.20
2018-12-09T21:10:12.078Z,2.83
2018-12-09T21:14:19.325Z,2.22
2018-12-09T21:18:23.671Z,2.50
2018-12-09T21:22:38.600Z,2.20
2018-12-09T21:26:45.194Z,2.27
2018-12-09T21:30:49.219Z,1.63
2018-12-09T21:34:53.154Z,1.60
2018-12-09T21:38:57.040Z,2.40
2018-12-09T21:43:01.186Z,2.20
2018-12-09T21:47:05.238Z,2.33
2018-12-09T21:51:09.253Z,2.25
2018-12-09T21:55:13.075Z,2.45
2018-12-09T21:59:17.842Z,2.67
2018-12-09T22:03:25.204Z,2.53
2018-12-09T22:07:32.691Z,2.55
2018-12-09T22:11:40.773Z,2.62
2018-12-09T22:15:48.811Z,3.27
2018-12-09T22:19:53.065Z,2.72
2018-12-09T22:23:56.746Z,3.10
2018-12-09T22:28:00.433Z,2.20
2018-12-09T22:32:04.202Z,2.75
2018-12-09T22:36:10.743Z,3.00
2018-12-09T22:40:14.833Z,2.98
2018-12-09T22:44:19.743Z,2.60
2018-12-09T22:48:23.453Z,2.52
2018-12-09T22:52:27.094Z,3.10
2018-12-09T22:56:30.754Z,2.83
2018-12-09T23:00:35.035Z,2.63
2018-12-09T23:04:38.661Z,2.58
2018-12-09T23:08:42.424Z,2.30
2018-12-09T23:12:46.342Z,2.73
2018-12-09T23:16:50.157Z,3.10
2018-12-09T23:20:53.903Z,2.83
2018-12-09T23:24:57.674Z,1.98
2018-12-09T23:29:01.404Z,2.27
2018-12-09T23:33:05.147Z,2.52
2018-12-09T23:37:08.859Z,2.22
2018-12-09T23:41:12.510Z,2.60
2018-12-09T23:45:16.166Z,2.52
2018-12-09T23:49:19.819Z,2.33
2018-12-09T23:53:23.433Z,2.60
2018-12-09T23:57:27.060Z,2.10
